Time;durP1;ratioP1;P1;durP2;ratioP2;P2;SDS_P1;SDS_P2;PMS_P1;PMS_P2;Temp;Humidity;BMP_temperature;BMP_pressure;BME280_temperature;BME280_humidity;BME280_pressure;Samples;Min_cycle;Max_cycle;Signal;HPM_P1;HPM_P2
2022/06/15 00:00:56;;;;;;;7.10;3.78;;;;;;;13.23;67.80;96257.13;2056692;28;20047;-63
2022/06/15 00:01:58;;;;;;;6.68;3.47;;;;;;;13.25;67.55;96263.09;2064898;28;20057;-63
2022/06/15 00:02:59;;;;;;;7.18;3.60;;;;;;;13.23;67.65;96261.47;2072565;28;20068;-63
2022/06/15 00:04:02;;;;;;;5.88;3.75;;;;;;;13.25;68.05;96249.22;2064414;28;20054;-63
2022/06/15 00:05:04;;;;;;;7.70;3.22;;;;;;;13.23;67.74;96258.88;2064968;28;20428;-63
2022/06/15 00:06:10;;;;;;;7.15;3.58;;;;;;;13.24;67.83;96261.41;2071997;28;20069;-63
2022/06/15 00:07:11;;;;;;;6.50;3.20;;;;;;;13.23;67.77;96262.34;2072592;28;20050;-62
2022/06/15 00:08:12;;;;;;;6.28;3.67;;;;;;;13.21;68.51;96258.97;2072196;28;20507;-63
2022/06/15 00:09:14;;;;;;;6.95;3.40;;;;;;;13.21;67.85;96258.13;2056830;28;20455;-63
2022/06/15 00:10:15;;;;;;;5.90;3.70;;;;;;;13.29;67.72;96249.94;2056519;28;20054;-63
2022/06/15 00:11:19;;;;;;;8.27;4.03;;;;;;;13.29;68.19;96256.00;2056039;28;20554;-63
2022/06/15 00:12:20;;;;;;;6.57;3.42;;;;;;;13.28;67.83;96253.44;2065283;28;20065;-61
2022/06/15 00:13:22;;;;;;;7.80;4.18;;;;;;;13.26;68.33;96253.56;2064307;28;20063;-61
2022/06/15 00:14:25;;;;;;;8.23;3.75;;;;;;;13.21;68.42;96256.38;2056064;28;20061;-64
2022/06/15 00:15:26;;;;;;;10.18;3.50;;;;;;;13.18;68.19;96253.94;2064552;28;20050;-63
2022/06/15 00:16:27;;;;;;;7.25;3.45;;;;;;;13.20;68.12;96256.44;2063974;28;20054;-63
2022/06/15 00:17:28;;;;;;;8.63;3.60;;;;;;;13.23;68.40;96249.31;2064275;28;20057;-63
2022/06/15 00:18:30;;;;;;;7.53;3.78;;;;;;;13.25;68.03;96244.84;2064028;28;20054;-63
2022/06/15 00:19:32;;;;;;;8.93;3.45;;;;;;;13.29;67.62;96240.34;2064643;28;20046;-63
2022/06/15 00:20:33;;;;;;;5.57;3.53;;;;;;;13.31;67.55;96242.84;2056072;28;20061;-61
2022/06/15 00:21:34;;;;;;;7.60;3.55;;;;;;;13.24;67.93;96231.88;2056348;28;20047;-60
2022/06/15 00:22:35;;;;;;;9.07;4.28;;;;;;;13.25;68.22;96244.00;2064574;28;20053;-65
2022/06/15 00:23:37;;;;;;;7.93;3.60;;;;;;;13.24;68.28;96247.53;2056206;28;20133;-62
2022/06/15 00:24:38;;;;;;;5.40;3.47;;;;;;;13.21;68.34;96239.88;2056491;28;20555;-64
2022/06/15 00:25:39;;;;;;;11.07;4.03;;;;;;;13.18;68.68;96240.06;2073092;28;20602;-61
2022/06/15 00:26:41;;;;;;;7.95;3.42;;;;;;;13.11;68.69;96246.50;2080321;28;20041;-62
2022/06/15 00:27:43;;;;;;;7.47;4.03;;;;;;;13.05;69.19;96244.25;2080310;28;20057;-63
2022/06/15 00:28:44;;;;;;;6.72;3.72;;;;;;;13.02;69.40;96243.47;2072188;28;20407;-63
2022/06/15 00:29:45;;;;;;;6.75;3.90;;;;;;;13.05;68.55;96241.63;2071672;28;20037;-63
2022/06/15 00:30:49;;;;;;;6.10;3.83;;;;;;;13.04;68.95;96240.75;2072199;28;20042;-63
2022/06/15 00:31:51;;;;;;;7.60;3.70;;;;;;;13.05;69.44;96247.69;2072471;28;20041;-63
2022/06/15 00:32:52;;;;;;;8.60;3.65;;;;;;;13.01;69.14;96249.59;2072104;28;20049;-64
2022/06/15 00:33:54;;;;;;;9.10;4.15;;;;;;;13.02;69.48;96247.84;2064500;28;20049;-65
2022/06/15 00:34:55;;;;;;;8.18;4.03;;;;;;;12.97;69.34;96237.66;2064157;28;20427;-63
2022/06/15 00:35:58;;;;;;;9.45;4.20;;;;;;;12.95;69.67;96249.91;2072527;28;20061;-63
2022/06/15 00:37:01;;;;;;;8.50;4.10;;;;;;;12.96;69.22;96242.94;2056518;28;20043;-62
2022/06/15 00:38:02;;;;;;;7.38;3.42;;;;;;;12.93;69.44;96245.72;2064499;28;20057;-64
2022/06/15 00:39:03;;;;;;;6.57;3.70;;;;;;;12.89;70.01;96239.81;2072520;28;20049;-63
2022/06/15 00:40:06;;;;;;;9.63;4.43;;;;;;;12.87;69.72;96240.81;2063530;28;20050;-63
2022/06/15 00:41:10;;;;;;;7.97;4.45;;;;;;;12.89;69.94;96241.59;2064401;28;20049;-63
2022/06/15 00:42:12;;;;;;;6.28;3.65;;;;;;;12.90;69.62;96236.28;2072421;28;20053;-63
2022/06/15 00:43:13;;;;;;;9.98;4.50;;;;;;;12.87;70.07;96235.63;2064314;28;20054;-63
2022/06/15 00:44:36;;;;;;;7.25;3.92;;;;;;;12.90;69.57;96232.84;2064250;28;20057;-63
2022/06/15 00:45:37;;;;;;;6.80;3.67;;;;;;;12.87;69.27;96238.22;2056025;28;20054;-62
2022/06/15 00:46:40;;;;;;;9.43;3.80;;;;;;;12.93;69.58;96240.50;2043122;28;20047;-62
2022/06/15 00:47:43;;;;;;;10.10;4.40;;;;;;;12.87;69.17;96238.22;2043532;28;20043;-63
2022/06/15 00:48:45;;;;;;;7.88;3.88;;;;;;;12.74;70.55;96235.41;2040563;28;20052;-62
2022/06/15 00:49:51;;;;;;;7.53;4.20;;;;;;;12.69;70.82;96240.00;2063886;28;20088;-64
2022/06/15 00:50:53;;;;;;;5.30;3.55;;;;;;;12.66;71.31;96246.22;2056793;28;20062;-63
2022/06/15 00:51:57;;;;;;;9.20;4.05;;;;;;;12.63;70.97;96235.13;2064817;28;20046;-63
2022/06/15 00:53:02;;;;;;;9.82;4.22;;;;;;;12.57;71.50;96239.72;2072573;28;20050;-63
2022/06/15 00:54:03;;;;;;;7.88;3.90;;;;;;;12.50;71.42;96238.34;2079795;28;20054;-63
2022/06/15 00:55:08;;;;;;;8.50;4.50;;;;;;;12.48;72.10;96248.03;2073362;28;20046;-64
2022/06/15 00:56:09;;;;;;;8.20;4.05;;;;;;;12.49;71.87;96244.50;2065145;28;20061;-63
2022/06/15 00:57:11;;;;;;;8.60;3.97;;;;;;;12.45;71.68;96237.72;2071779;28;20052;-65
2022/06/15 00:58:15;;;;;;;10.90;4.40;;;;;;;12.44;71.48;96245.66;2071574;28;20478;-62
2022/06/15 00:59:24;;;;;;;8.00;4.78;;;;;;;12.39;71.57;96238.06;2071983;28;20566;-62
2022/06/15 01:00:26;;;;;;;11.23;4.40;;;;;;;12.35;71.92;96244.34;2057494;28;20397;-63
2022/06/15 01:01:27;;;;;;;9.40;4.63;;;;;;;12.35;71.88;96239.16;2057093;28;20361;-64
2022/06/15 01:02:29;;;;;;;6.75;4.30;;;;;;;12.31;72.31;96240.19;2072287;28;20064;-63
2022/06/15 01:03:30;;;;;;;6.82;4.20;;;;;;;12.31;72.26;96242.81;2071481;28;20060;-63
2022/06/15 01:04:39;;;;;;;11.48;4.72;;;;;;;12.22;72.07;96236.31;2064139;28;20054;-65
2022/06/15 01:05:57;;;;;;;9.50;4.50;;;;;;;12.23;73.56;96237.97;2056328;28;20046;-61
2022/06/15 01:07:04;;;;;;;10.02;4.57;;;;;;;12.21;72.73;96236.38;2056073;28;20162;-62
2022/06/15 01:08:16;;;;;;;7.18;4.07;;;;;;;12.23;72.65;96239.75;2072731;28;20057;-65
2022/06/15 01:09:20;;;;;;;11.40;4.70;;;;;;;12.20;73.15;96237.31;2079691;28;20056;-65
2022/06/15 01:10:44;;;;;;;7.10;4.25;;;;;;;12.18;73.64;96236.53;2072374;28;20041;-63
2022/06/15 01:12:09;;;;;;;8.93;4.35;;;;;;;12.19;72.84;96227.78;2080007;28;20037;-63
2022/06/15 01:13:40;;;;;;;9.27;4.57;;;;;;;12.22;73.09;96228.50;2076768;28;20038;-62
2022/06/15 01:14:50;;;;;;;14.63;4.80;;;;;;;12.22;73.19;96230.25;2071981;28;20045;-64
2022/06/15 01:16:11;;;;;;;11.02;4.47;;;;;;;12.18;73.80;96224.34;2078399;28;20041;-64
2022/06/15 01:17:42;;;;;;;7.80;4.47;;;;;;;12.13;73.50;96224.59;2070054;28;20519;-63
2022/06/15 01:18:57;;;;;;;9.07;4.13;;;;;;;12.08;73.55;96220.50;2075647;28;20041;-62
2022/06/15 01:20:05;;;;;;;6.82;4.18;;;;;;;12.07;74.01;96221.44;2072585;28;20098;-62
2022/06/15 01:21:18;;;;;;;9.40;4.75;;;;;;;12.05;74.33;96216.28;2074016;28;20065;-63
2022/06/15 01:22:49;;;;;;;9.35;4.20;;;;;;;12.02;75.04;96218.22;2078849;28;20049;-62
2022/06/15 01:24:19;;;;;;;5.95;4.25;;;;;;;11.97;74.48;96212.41;2064307;28;20050;-63
2022/06/15 01:25:39;;;;;;;7.35;4.65;;;;;;;11.91;74.36;96210.94;2068884;28;20427;-65
2022/06/15 01:27:01;;;;;;;10.65;5.07;;;;;;;11.89;74.51;96213.63;2072952;28;20369;-63
2022/06/15 01:28:37;;;;;;;12.07;4.65;;;;;;;11.85;75.21;96211.22;2064070;28;20057;-63
2022/06/15 01:30:06;;;;;;;9.30;4.43;;;;;;;11.81;75.16;96202.69;2062106;28;20038;-63
2022/06/15 01:31:14;;;;;;;11.20;4.80;;;;;;;11.84;75.19;96209.50;2075742;28;20538;-62
2022/06/15 01:32:24;;;;;;;11.18;5.40;;;;;;;11.86;74.90;96208.56;2064517;28;20054;-63
2022/06/15 01:33:35;;;;;;;8.93;4.68;;;;;;;11.86;74.70;96207.72;2066358;28;20050;-63
2022/06/15 01:34:50;;;;;;;8.57;4.63;;;;;;;11.84;74.71;96206.91;2064083;28;20389;-63
2022/06/15 01:36:07;;;;;;;10.98;5.35;;;;;;;11.76;75.22;96207.31;2060332;28;20072;-62
2022/06/15 01:37:18;;;;;;;8.75;4.90;;;;;;;11.75;75.82;96204.75;2066354;28;20101;-63
2022/06/15 01:38:45;;;;;;;7.47;5.20;;;;;;;11.76;76.09;96203.84;2064266;28;20059;-63
2022/06/15 01:40:10;;;;;;;7.20;4.50;;;;;;;11.67;76.04;96207.72;2056396;28;20139;-64
2022/06/15 01:41:31;;;;;;;10.95;4.97;;;;;;;11.64;75.85;96205.28;2059947;28;20053;-63
2022/06/15 01:42:37;;;;;;;9.45;5.15;;;;;;;11.64;75.78;96208.72;2066919;28;20043;-63
2022/06/15 01:43:42;;;;;;;8.90;5.28;;;;;;;11.64;76.43;96205.28;2063783;28;20046;-63
2022/06/15 01:44:46;;;;;;;10.75;5.38;;;;;;;11.62;76.14;96215.75;2056113;28;20054;-64
2022/06/15 01:45:48;;;;;;;9.50;4.95;;;;;;;11.57;76.60;96206.47;2063874;28;20043;-62
2022/06/15 01:46:51;;;;;;;10.20;5.35;;;;;;;11.56;76.26;96210.00;2064196;28;20042;-64
2022/06/15 01:47:52;;;;;;;8.18;5.75;;;;;;;11.55;76.23;96203.97;2058857;28;20547;-63
2022/06/15 01:48:54;;;;;;;9.10;5.40;;;;;;;11.57;76.74;96214.28;2055969;28;20065;-64
2022/06/15 01:50:09;;;;;;;9.30;5.60;;;;;;;11.53;76.70;96205.81;2049449;28;20509;-63
2022/06/15 01:51:13;;;;;;;9.63;5.30;;;;;;;11.49;76.54;96209.44;2066537;28;20046;-63
2022/06/15 01:52:15;;;;;;;8.82;5.50;;;;;;;11.46;76.67;96207.84;2055823;28;20151;-62
2022/06/15 01:53:27;;;;;;;9.88;5.03;;;;;;;11.46;76.78;96204.41;2048257;28;20054;-63
2022/06/15 01:54:32;;;;;;;8.63;5.32;;;;;;;11.47;76.53;96208.69;2051009;28;20055;-63
2022/06/15 01:55:49;;;;;;;11.70;5.63;;;;;;;11.46;76.81;96199.19;2064577;28;20054;-59
2022/06/15 01:56:51;;;;;;;10.25;5.50;;;;;;;11.43;76.57;96202.78;2072543;28;20054;-62
2022/06/15 01:57:55;;;;;;;8.88;5.53;;;;;;;11.39;76.87;96206.47;2065741;28;20049;-63
2022/06/15 01:59:01;;;;;;;9.85;6.03;;;;;;;11.42;77.19;96206.31;2049762;28;20055;-62
2022/06/15 02:00:04;;;;;;;8.55;5.35;;;;;;;11.37;76.93;96200.47;2059405;28;20046;-62
2022/06/15 02:01:17;;;;;;;8.73;5.60;;;;;;;11.36;77.89;96195.34;2065239;28;20053;-63
2022/06/15 02:02:43;;;;;;;9.48;5.85;;;;;;;11.34;77.23;96199.78;2065870;28;20053;-63
2022/06/15 02:03:50;;;;;;;8.85;5.68;;;;;;;11.30;78.01;96199.06;2056724;28;20042;-63
2022/06/15 02:05:30;;;;;;;9.70;5.72;;;;;;;11.29;78.33;96193.97;2068916;28;20049;-65
2022/06/15 02:06:54;;;;;;;10.18;5.95;;;;;;;11.31;77.88;96200.78;2062941;28;20054;-63
2022/06/15 02:08:00;;;;;;;9.45;5.90;;;;;;;11.30;79.88;96199.06;2071753;28;20520;-63
2022/06/15 02:09:09;;;;;;;9.27;5.47;;;;;;;11.28;80.44;96203.53;2042116;29;20062;-62
2022/06/15 02:10:20;;;;;;;10.32;7.03;;;;;;;11.27;80.74;96196.63;2059985;28;20062;-63
2022/06/15 02:11:28;;;;;;;11.85;6.10;;;;;;;11.24;81.11;96199.38;2073508;28;20052;-63
2022/06/15 02:12:34;;;;;;;10.30;5.97;;;;;;;11.22;81.99;96196.00;2050226;28;20047;-65
2022/06/15 02:13:42;;;;;;;10.43;6.32;;;;;;;11.17;82.29;96201.44;2057793;28;20042;-64
2022/06/15 02:14:50;;;;;;;10.98;6.55;;;;;;;11.14;82.72;96201.53;2066664;28;20053;-63
2022/06/15 02:15:55;;;;;;;8.98;6.07;;;;;;;11.09;82.91;96193.09;2065266;28;20138;-63
2022/06/15 02:17:02;;;;;;;9.27;6.10;;;;;;;11.11;82.90;96198.25;2065668;28;20065;-63
2022/06/15 02:18:07;;;;;;;12.95;6.25;;;;;;;11.09;82.98;96194.88;2058980;28;20057;-64
2022/06/15 02:19:11;;;;;;;10.82;6.22;;;;;;;11.03;82.88;96196.84;2057796;28;20070;-63
2022/06/15 02:20:16;;;;;;;10.55;6.57;;;;;;;11.03;83.19;96191.63;2051152;28;20583;-63
2022/06/15 02:21:19;;;;;;;9.48;6.10;;;;;;;11.06;83.04;96192.41;2064888;28;20050;-63
2022/06/15 02:22:22;;;;;;;15.23;6.50;;;;;;;11.02;83.82;96200.34;2065571;28;20046;-63
2022/06/15 02:23:23;;;;;;;15.95;7.45;;;;;;;11.05;83.23;96199.38;2065230;28;20548;-63
2022/06/15 02:24:24;;;;;;;13.85;7.03;;;;;;;11.01;83.06;96193.50;2065351;28;20054;-63
2022/06/15 02:25:28;;;;;;;11.20;6.18;;;;;;;10.97;83.21;96199.72;2057527;28;20051;-63
2022/06/15 02:26:32;;;;;;;9.75;6.35;;;;;;;10.93;83.89;96190.41;2058517;28;20057;-63
2022/06/15 02:27:34;;;;;;;10.25;6.53;;;;;;;10.88;83.86;96187.16;2065711;28;20097;-61
2022/06/15 02:28:37;;;;;;;11.88;6.80;;;;;;;10.92;83.73;96200.84;2065672;28;20053;-62
2022/06/15 02:29:41;;;;;;;10.00;6.22;;;;;;;10.87;83.75;96189.81;2065156;28;20058;-61
2022/06/15 02:30:43;;;;;;;13.38;6.78;;;;;;;10.80;84.11;96200.50;2065413;28;20053;-62
2022/06/15 02:31:44;;;;;;;9.98;6.85;;;;;;;10.81;84.37;96203.94;2057218;28;20090;-63
2022/06/15 02:32:46;;;;;;;11.48;7.40;;;;;;;10.79;84.17;96203.16;2057220;28;20054;-63
2022/06/15 02:33:51;;;;;;;9.40;6.13;;;;;;;10.84;83.48;96202.94;2065586;28;20042;-62
2022/06/15 02:34:53;;;;;;;12.43;7.50;;;;;;;10.80;83.97;96200.50;2073179;28;20552;-62
2022/06/15 02:35:56;;;;;;;12.27;7.10;;;;;;;10.77;84.04;96199.78;2072732;28;20041;-63
2022/06/15 02:36:57;;;;;;;11.32;7.03;;;;;;;10.80;84.22;96203.09;2056994;28;20102;-62
2022/06/15 02:37:59;;;;;;;10.57;6.32;;;;;;;10.87;84.86;96200.22;2048932;28;20485;-62
2022/06/15 02:39:03;;;;;;;12.98;7.68;;;;;;;10.85;84.57;96196.81;2065367;28;20093;-62
2022/06/15 02:40:06;;;;;;;13.50;6.50;;;;;;;10.82;85.48;96203.88;2073561;28;20038;-64
2022/06/15 02:41:11;;;;;;;10.25;7.10;;;;;;;10.78;85.36;96199.72;2081235;28;20054;-63
2022/06/15 02:42:33;;;;;;;12.98;7.53;;;;;;;10.71;85.44;96200.88;2056958;28;20062;-62
2022/06/15 02:43:40;;;;;;;13.77;6.30;;;;;;;10.65;84.69;96201.16;2064382;28;20522;-62
2022/06/15 02:44:42;;;;;;;13.80;7.55;;;;;;;10.68;85.58;96192.41;2040943;29;20039;-64
2022/06/15 02:45:43;;;;;;;15.07;7.05;;;;;;;10.64;85.40;96189.09;2041750;28;20047;-63
2022/06/15 02:46:46;;;;;;;11.05;7.35;;;;;;;10.70;85.29;96200.97;2064612;28;20054;-62
2022/06/15 02:47:48;;;;;;;12.38;7.60;;;;;;;10.69;85.60;96194.06;2048455;28;20043;-64
2022/06/15 02:48:49;;;;;;;12.40;7.63;;;;;;;10.69;84.87;96191.47;2056588;28;20069;-63
2022/06/15 02:49:51;;;;;;;12.88;7.63;;;;;;;10.67;84.99;96188.13;2048952;28;20454;-63
2022/06/15 02:51:00;;;;;;;16.73;8.02;;;;;;;10.66;84.91;96189.03;2065608;28;20049;-63
2022/06/15 02:52:03;;;;;;;10.45;6.80;;;;;;;10.62;84.74;96190.91;2065162;28;20061;-62
2022/06/15 02:53:05;;;;;;;11.20;6.70;;;;;;;10.64;84.81;96194.31;2056921;28;20058;-63
2022/06/15 02:54:21;;;;;;;13.80;7.82;;;;;;;10.62;84.87;96190.91;2041629;29;20438;-63
2022/06/15 02:55:23;;;;;;;10.95;7.07;;;;;;;10.60;84.09;96188.38;2043287;29;20449;-63
2022/06/15 02:56:24;;;;;;;12.70;7.65;;;;;;;10.61;84.70;96186.63;2033651;28;20048;-63
2022/06/15 02:57:27;;;;;;;10.18;6.85;;;;;;;10.65;84.22;96184.75;2057727;28;20062;-63
2022/06/15 02:58:33;;;;;;;11.27;7.35;;;;;;;10.65;84.37;96192.53;2073168;28;20519;-63
2022/06/15 02:59:35;;;;;;;12.52;7.35;;;;;;;10.62;84.38;96184.88;2064568;28;20089;-62
2022/06/15 03:00:38;;;;;;;12.60;7.88;;;;;;;10.65;84.11;96187.34;2057770;28;20051;-62
2022/06/15 03:01:39;;;;;;;14.50;7.93;;;;;;;10.63;83.72;96181.38;2057033;28;20042;-62
2022/06/15 03:02:42;;;;;;;13.02;7.15;;;;;;;10.68;84.34;96182.84;2057672;28;20054;-62
2022/06/15 03:03:43;;;;;;;10.73;6.70;;;;;;;10.69;84.15;96181.97;2048920;28;20468;-63
2022/06/15 03:04:50;;;;;;;12.85;7.88;;;;;;;10.69;83.47;96186.28;2051268;28;20043;-63
2022/06/15 03:05:52;;;;;;;12.82;7.38;;;;;;;10.70;84.19;96178.44;2064880;28;20050;-63
2022/06/15 03:06:54;;;;;;;11.38;7.50;;;;;;;10.74;83.26;96179.13;2065241;28;20034;-63
2022/06/15 03:07:56;;;;;;;11.38;6.72;;;;;;;10.76;83.35;96175.56;2064747;28;20039;-63
2022/06/15 03:08:58;;;;;;;15.68;7.65;;;;;;;10.76;82.85;96188.53;2072273;28;20053;-62
2022/06/15 03:10:06;;;;;;;14.15;7.35;;;;;;;10.72;82.85;96187.00;2056015;28;20055;-63
2022/06/15 03:11:08;;;;;;;12.00;7.38;;;;;;;10.73;83.04;96183.50;2057777;28;20448;-63
2022/06/15 03:12:10;;;;;;;12.77;7.60;;;;;;;10.71;83.32;96189.66;2064910;28;20050;-64
2022/06/15 03:13:12;;;;;;;12.10;7.15;;;;;;;10.70;82.83;96178.44;2057205;28;20058;-63
2022/06/15 03:14:14;;;;;;;14.57;8.02;;;;;;;10.70;83.02;96188.81;2048903;28;20545;-62
2022/06/15 03:15:16;;;;;;;11.73;7.30;;;;;;;10.71;83.26;96187.91;2049066;28;20067;-65
2022/06/15 03:16:17;;;;;;;14.60;7.95;;;;;;;10.73;83.42;96180.88;2056556;28;20053;-63
2022/06/15 03:17:20;;;;;;;11.98;7.43;;;;;;;10.72;82.66;96184.41;2049477;28;20513;-63
2022/06/15 03:18:28;;;;;;;14.05;7.72;;;;;;;10.73;83.33;96186.09;2057769;28;20058;-63
2022/06/15 03:19:32;;;;;;;12.60;8.00;;;;;;;10.73;82.87;96191.28;2065556;28;20065;-63
2022/06/15 03:20:37;;;;;;;14.02;7.68;;;;;;;10.76;82.93;96188.53;2065629;28;20054;-63
2022/06/15 03:21:38;;;;;;;13.13;7.10;;;;;;;10.82;82.41;96187.41;2056689;28;20049;-63
2022/06/15 03:22:42;;;;;;;12.20;7.22;;;;;;;10.84;82.62;96195.16;2049017;28;20409;-62
2022/06/15 03:23:50;;;;;;;13.95;7.57;;;;;;;10.87;83.54;96188.06;2059580;28;20069;-63
2022/06/15 03:24:52;;;;;;;16.20;8.43;;;;;;;10.88;83.89;96189.75;2065010;28;20082;-63
2022/06/15 03:25:56;;;;;;;11.05;7.63;;;;;;;10.92;84.63;96185.25;2058946;28;20050;-64
2022/06/15 03:26:57;;;;;;;12.95;8.00;;;;;;;10.93;85.19;96192.13;2065662;28;20043;-63
2022/06/15 03:27:59;;;;;;;15.43;7.78;;;;;;;10.91;84.94;96181.81;2064689;28;20046;-63
2022/06/15 03:29:05;;;;;;;14.18;7.80;;;;;;;10.90;85.24;96192.28;2049648;28;20130;-62
2022/06/15 03:30:07;;;;;;;13.43;8.05;;;;;;;10.92;84.59;96195.66;2065502;28;20054;-63
2022/06/15 03:31:16;;;;;;;14.25;7.65;;;;;;;10.93;84.57;96190.41;2072572;28;20098;-63
2022/06/15 03:32:17;;;;;;;13.77;7.95;;;;;;;10.92;84.50;96193.06;2064560;28;20049;-63
2022/06/15 03:33:25;;;;;;;13.13;7.43;;;;;;;10.95;84.50;96196.34;2073048;28;20443;-63
2022/06/15 03:34:26;;;;;;;13.10;7.30;;;;;;;10.96;84.19;96191.97;2057744;28;20051;-63
2022/06/15 03:35:34;;;;;;;14.00;7.55;;;;;;;10.95;83.65;96188.53;2056783;28;20054;-63
2022/06/15 03:36:42;;;;;;;14.05;7.55;;;;;;;10.98;83.22;96195.38;2058411;28;20043;-62
2022/06/15 03:37:43;;;;;;;11.55;7.90;;;;;;;11.02;82.49;96192.56;2064693;28;20575;-63
2022/06/15 03:38:57;;;;;;;11.15;6.95;;;;;;;11.06;82.45;96190.66;2072708;28;20550;-63
2022/06/15 03:40:05;;;;;;;11.13;6.60;;;;;;;11.07;81.82;96194.97;2073325;28;20057;-63
2022/06/15 03:41:10;;;;;;;14.43;7.03;;;;;;;11.10;82.74;96194.81;2071695;28;20058;-62
2022/06/15 03:42:15;;;;;;;11.73;7.22;;;;;;;11.13;82.37;96188.63;2058025;28;20043;-62
2022/06/15 03:43:17;;;;;;;14.27;7.10;;;;;;;11.15;82.29;96190.25;2049831;28;20062;-63
2022/06/15 03:44:18;;;;;;;11.43;7.35;;;;;;;11.20;82.48;96195.22;2064811;28;20042;-63
2022/06/15 03:45:20;;;;;;;11.35;6.85;;;;;;;11.21;82.04;96195.16;2072737;28;20499;-64
2022/06/15 03:46:23;;;;;;;14.32;7.43;;;;;;;11.23;80.91;96190.72;2064466;28;20053;-62
2022/06/15 03:47:26;;;;;;;13.30;7.53;;;;;;;11.23;81.14;96190.72;2057143;28;20047;-63
2022/06/15 03:48:28;;;;;;;11.02;6.50;;;;;;;11.27;81.23;96194.03;2057109;28;20073;-62
2022/06/15 03:49:29;;;;;;;11.43;7.30;;;;;;;11.30;81.28;96195.63;2065023;28;20050;-63
2022/06/15 03:50:32;;;;;;;13.60;7.55;;;;;;;11.28;81.79;96200.94;2065103;28;20042;-65
2022/06/15 03:51:35;;;;;;;11.40;7.03;;;;;;;11.30;81.51;96201.66;2072250;28;20053;-62
2022/06/15 03:52:38;;;;;;;11.68;7.10;;;;;;;11.29;81.14;96192.19;2065241;28;20042;-63
2022/06/15 03:53:40;;;;;;;13.40;7.60;;;;;;;11.33;80.49;96200.69;2064971;28;20042;-61
2022/06/15 03:54:41;;;;;;;10.90;6.72;;;;;;;11.40;81.20;96195.13;2060278;28;20046;-63
2022/06/15 03:55:44;;;;;;;13.80;7.47;;;;;;;11.41;80.62;96202.03;2064626;28;20049;-63
2022/06/15 03:56:50;;;;;;;11.00;7.22;;;;;;;11.41;81.12;96199.44;2064802;28;20053;-63
2022/06/15 03:57:59;;;;;;;12.35;6.88;;;;;;;11.44;80.69;96193.22;2065667;28;20050;-64
2022/06/15 03:59:01;;;;;;;10.95;6.78;;;;;;;11.46;81.00;96194.00;2073064;28;20068;-63
2022/06/15 04:00:04;;;;;;;14.30;7.50;;;;;;;11.51;80.97;96196.38;2073249;28;20423;-62
2022/06/15 04:01:25;;;;;;;11.48;7.13;;;;;;;11.60;80.71;96196.81;2072550;28;20049;-63
2022/06/15 04:02:26;;;;;;;11.93;6.93;;;;;;;11.67;79.62;96200.78;2067673;28;20050;-62
2022/06/15 04:03:29;;;;;;;11.55;7.03;;;;;;;11.73;78.75;96197.03;2064543;28;20711;-63
2022/06/15 04:04:33;;;;;;;12.40;7.30;;;;;;;11.81;78.78;96204.47;2056103;28;20051;-60
2022/06/15 04:05:43;;;;;;;11.82;6.72;;;;;;;11.88;78.35;96205.88;2049652;28;20055;-63
2022/06/15 04:06:45;;;;;;;12.70;6.53;;;;;;;11.85;79.19;96201.66;2073944;28;20037;-63
2022/06/15 04:09:09;;;;;;;11.50;6.90;;;;;;;12.03;77.93;96209.47;2075277;28;20060;-62
2022/06/15 04:10:14;;;;;;;10.75;6.35;;;;;;;12.19;78.17;96209.56;2071936;28;20053;-62
2022/06/15 04:12:45;;;;;;;;;;;;;;;12.41;76.94;96212.78;2073818;28;20046;-63
2022/06/15 04:13:48;;;;;;;13.18;6.93;;;;;;;12.40;77.54;96208.47;2072892;28;19913;-63
2022/06/15 04:14:50;;;;;;;11.77;6.75;;;;;;;12.39;76.82;96196.38;2065137;28;20049;-63
2022/06/15 04:16:05;;;;;;;12.73;7.47;;;;;;;12.42;76.57;96208.41;2072491;28;20045;-63
2022/06/15 04:17:07;;;;;;;10.93;6.93;;;;;;;12.52;76.00;96207.84;2063480;28;20073;-63
2022/06/15 04:18:23;;;;;;;11.57;7.18;;;;;;;12.54;76.41;96200.81;2066506;28;20057;-63
2022/06/15 04:19:26;;;;;;;11.80;6.68;;;;;;;12.60;75.27;96204.03;2064051;28;20053;-63
2022/06/15 04:20:36;;;;;;;9.57;6.25;;;;;;;12.67;75.34;96190.59;2064157;28;20047;-63
2022/06/15 04:21:43;;;;;;;15.10;7.38;;;;;;;12.71;75.35;96196.47;2080696;28;20057;-63
2022/06/15 04:22:47;;;;;;;10.68;6.15;;;;;;;12.80;74.22;96194.25;2070319;28;20049;-63
2022/06/15 04:23:48;;;;;;;9.60;6.22;;;;;;;12.89;73.77;96194.69;2095347;22;20045;-59
2022/06/15 04:24:50;;;;;;;13.55;6.75;;;;;;;12.89;73.94;96200.72;2062982;28;20058;-58
2022/06/15 04:25:57;;;;;;;13.38;6.60;;;;;;;12.94;73.54;96193.50;2071980;28;20637;-59
2022/06/15 04:27:00;;;;;;;12.90;7.43;;;;;;;13.01;73.24;96187.03;2081860;28;20060;-60
2022/06/15 04:28:04;;;;;;;9.90;6.60;;;;;;;13.13;72.55;96189.91;2071581;28;20045;-58
2022/06/15 04:29:05;;;;;;;12.82;6.82;;;;;;;13.36;71.81;96191.28;2073711;28;20060;-58
2022/06/15 04:30:09;;;;;;;16.50;6.72;;;;;;;13.32;71.72;96198.44;2072415;28;20057;-60
2022/06/15 04:31:12;;;;;;;15.55;6.57;;;;;;;13.31;71.66;96195.91;2059674;28;20484;-59
2022/06/15 04:32:15;;;;;;;11.07;7.30;;;;;;;13.26;71.16;96201.41;2056967;28;20043;-59
2022/06/15 04:33:16;;;;;;;10.38;6.82;;;;;;;13.28;71.31;96204.75;2056843;28;20066;-59
2022/06/15 04:34:18;;;;;;;10.88;6.75;;;;;;;13.27;71.81;96197.84;2061077;28;20057;-59
2022/06/15 04:35:20;;;;;;;9.43;6.35;;;;;;;13.28;72.23;96201.28;2072196;28;20054;-59
2022/06/15 04:36:26;;;;;;;10.18;6.72;;;;;;;13.31;72.46;96202.00;2072154;28;20045;-60
2022/06/15 04:37:33;;;;;;;13.15;6.57;;;;;;;13.31;73.05;96201.13;2067418;28;20051;-59
2022/06/15 04:38:41;;;;;;;10.50;6.68;;;;;;;13.29;72.63;96197.78;2058277;28;20038;-60
2022/06/15 04:39:44;;;;;;;10.73;6.82;;;;;;;13.12;73.22;96196.03;2067447;28;20502;-59
2022/06/15 04:40:46;;;;;;;13.25;7.38;;;;;;;13.13;72.34;96192.53;2072387;28;20053;-59
2022/06/15 04:41:47;;;;;;;13.48;7.65;;;;;;;13.18;72.26;96201.78;2064207;28;20057;-62
2022/06/15 04:42:48;;;;;;;14.98;7.13;;;;;;;13.19;72.57;96202.59;2081432;28;20054;-59
2022/06/15 04:43:50;;;;;;;11.35;7.60;;;;;;;13.11;72.57;96200.41;2081908;28;20049;-59
2022/06/15 04:44:52;;;;;;;13.35;6.50;;;;;;;13.16;72.24;96205.38;2080358;28;20041;-59
2022/06/15 04:45:54;;;;;;;11.32;6.47;;;;;;;13.18;72.16;96201.78;2073094;28;20045;-59
2022/06/15 04:46:58;;;;;;;13.48;7.25;;;;;;;13.14;72.39;96202.03;2072442;28;20088;-60
2022/06/15 04:48:01;;;;;;;10.02;6.32;;;;;;;13.21;72.58;96198.16;2082870;28;20056;-58
2022/06/15 04:49:03;;;;;;;13.50;7.00;;;;;;;13.28;72.18;96198.69;2080325;28;20052;-59
2022/06/15 04:50:15;;;;;;;10.90;6.43;;;;;;;13.25;71.80;96199.66;2074476;28;20054;-59
2022/06/15 04:51:21;;;;;;;12.02;6.20;;;;;;;13.13;72.45;96200.34;2064800;28;20443;-61
2022/06/15 04:52:26;;;;;;;10.18;5.90;;;;;;;13.14;72.26;96194.19;2066128;28;20050;-60
2022/06/15 04:53:28;;;;;;;10.82;6.85;;;;;;;13.07;71.92;96198.03;2065399;28;20053;-60
2022/06/15 04:54:29;;;;;;;11.75;6.15;;;;;;;12.99;72.54;96196.72;2066051;28;20061;-59
2022/06/15 04:55:34;;;;;;;12.40;7.18;;;;;;;13.08;72.64;96202.34;2064946;28;20046;-59
2022/06/15 04:56:37;;;;;;;10.07;6.20;;;;;;;12.99;72.66;96204.53;2049697;28;20059;-58
2022/06/15 04:57:43;;;;;;;9.27;6.28;;;;;;;12.94;73.39;96197.88;2059059;28;20489;-58
2022/06/15 04:58:44;;;;;;;15.18;6.80;;;;;;;12.90;72.95;96210.22;2064377;28;20437;-58
2022/06/15 04:59:45;;;;;;;13.57;6.53;;;;;;;12.79;73.70;96199.53;2072643;28;20050;-58
2022/06/15 05:00:50;;;;;;;15.43;7.50;;;;;;;12.73;74.03;96203.31;2080774;28;20135;-59
2022/06/15 05:01:55;;;;;;;10.20;6.70;;;;;;;12.68;74.00;96205.31;2073169;28;20060;-58
2022/06/15 05:02:58;;;;;;;10.02;6.32;;;;;;;12.65;74.13;96207.22;2072855;28;20077;-60
2022/06/15 05:03:59;;;;;;;10.15;6.60;;;;;;;12.63;74.52;96203.84;2072222;28;20061;-59
2022/06/15 05:05:00;;;;;;;11.43;6.53;;;;;;;12.65;75.20;96202.84;2072293;28;20050;-58
2022/06/15 05:06:28;;;;;;;13.10;7.38;;;;;;;12.79;74.83;96202.13;2072665;28;20049;-58
2022/06/15 05:07:32;;;;;;;10.32;5.80;;;;;;;12.97;74.68;96198.56;2084184;28;20079;-58
2022/06/15 05:08:33;;;;;;;9.52;6.45;;;;;;;13.05;73.61;96197.31;2064961;28;20419;-57
2022/06/15 05:09:35;;;;;;;11.27;6.43;;;;;;;13.09;72.88;96194.44;2056548;28;20054;-59
2022/06/15 05:10:36;;;;;;;14.43;6.65;;;;;;;13.16;73.06;96198.41;2064321;28;20050;-58